createdAt,value
2018-04-17T00:00:38.715Z,0
2018-04-17T00:01:48.156Z,0
2018-04-17T00:02:57.564Z,0
2018-04-17T00:04:06.715Z,0
2018-04-17T00:05:15.871Z,0
2018-04-17T00:06:25.023Z,0
2018-04-17T00:07:34.695Z,0
2018-04-17T00:08:43.854Z,0
2018-04-17T00:09:53.272Z,0
2018-04-17T00:11:02.427Z,0
2018-04-17T00:12:11.851Z,0
2018-04-17T00:13:21.524Z,0
2018-04-17T00:14:31.491Z,0
2018-04-17T00:15:40.900Z,0
2018-04-17T00:16:50.318Z,0
2018-04-17T00:17:59.982Z,0
2018-04-17T00:19:09.411Z,0
2018-04-17T00:20:18.834Z,0
2018-04-17T00:21:27.978Z,0
2018-04-17T00:22:37.841Z,0
2018-04-17T00:23:46.995Z,0
2018-04-17T00:24:56.438Z,0
2018-04-17T00:26:06.375Z,0
2018-04-17T00:27:16.319Z,0
2018-04-17T00:28:26.073Z,0
2018-04-17T00:29:36.010Z,0
2018-04-17T00:30:45.425Z,0
2018-04-17T00:31:54.836Z,0
2018-04-17T00:33:03.994Z,0
2018-04-17T00:34:13.158Z,0
2018-04-17T00:35:22.329Z,0
2018-04-17T00:36:31.233Z,0
2018-04-17T00:37:41.173Z,0
2018-04-17T00:38:50.326Z,0
2018-04-17T00:39:59.478Z,0
2018-04-17T00:41:09.141Z,0
2018-04-17T00:42:19.085Z,0
2018-04-17T00:43:28.499Z,0
2018-04-17T00:44:37.922Z,0
2018-04-17T00:45:46.838Z,0
2018-04-17T00:46:56.269Z,0
2018-04-17T00:48:05.696Z,0
2018-04-17T00:49:15.369Z,0
2018-04-17T00:50:24.263Z,0
2018-04-17T00:51:33.424Z,0
2018-04-17T00:52:42.828Z,0
2018-04-17T00:53:52.772Z,0
2018-04-17T00:55:01.668Z,0
2018-04-17T00:56:10.571Z,0
2018-04-17T00:57:20.502Z,0
2018-04-17T00:58:29.397Z,0
2018-04-17T00:59:38.599Z,0
2018-04-17T01:00:47.745Z,0
2018-04-17T01:01:57.485Z,0
2018-04-17T01:03:06.909Z,0
2018-04-17T01:04:16.574Z,0
2018-04-17T01:05:25.723Z,0
2018-04-17T01:06:35.392Z,0
2018-04-17T01:07:45.066Z,0
2018-04-17T01:08:54.225Z,0
2018-04-17T01:10:03.639Z,0
2018-04-17T01:11:13.054Z,0
2018-04-17T01:12:22.753Z,0
2018-04-17T01:13:32.165Z,0
2018-04-17T01:14:41.841Z,0
2018-04-17T01:15:51.510Z,0
2018-04-17T01:17:00.672Z,0
2018-04-17T01:18:10.339Z,0
2018-04-17T01:19:19.997Z,0
2018-04-17T01:20:29.158Z,0
2018-04-17T01:21:38.320Z,0
2018-04-17T01:22:47.483Z,0
2018-04-17T01:23:56.908Z,0
2018-04-17T01:25:06.336Z,0
2018-04-17T01:26:15.497Z,0
2018-04-17T01:27:24.647Z,0
2018-04-17T01:28:34.345Z,0
2018-04-17T01:29:43.299Z,0
2018-04-17T01:30:52.451Z,0
2018-04-17T01:32:01.610Z,0
2018-04-17T01:33:11.044Z,0
2018-04-17T01:34:20.481Z,0
2018-04-17T01:35:29.891Z,0
2018-04-17T01:36:39.048Z,0
2018-04-17T01:37:48.461Z,0
2018-04-17T01:38:58.138Z,0
2018-04-17T01:40:07.566Z,0
2018-04-17T01:41:16.745Z,0
2018-04-17T01:42:26.416Z,0
2018-04-17T01:43:35.568Z,0
2018-04-17T01:44:44.715Z,0
2018-04-17T01:45:54.644Z,0
2018-04-17T01:47:03.820Z,0
2018-04-17T01:48:13.501Z,0
2018-04-17T01:49:22.912Z,0
2018-04-17T01:50:32.070Z,0
2018-04-17T01:51:41.496Z,0
2018-04-17T01:52:50.934Z,0
2018-04-17T01:54:00.874Z,0
2018-04-17T01:55:09.776Z,0
2018-04-17T01:56:19.811Z,0
2018-04-17T01:57:29.380Z,0
2018-04-17T01:58:38.551Z,0
2018-04-17T01:59:47.973Z,0
2018-04-17T02:00:57.916Z,0
2018-04-17T02:02:07.336Z,0
2018-04-17T02:03:17.017Z,0
2018-04-17T02:04:26.689Z,0
2018-04-17T02:05:35.604Z,0
2018-04-17T02:06:45.035Z,0
2018-04-17T02:07:54.463Z,0
2018-04-17T02:09:03.646Z,0
2018-04-17T02:10:13.065Z,0
2018-04-17T02:11:22.533Z,0
2018-04-17T02:12:32.222Z,0
2018-04-17T02:13:41.376Z,0
2018-04-17T02:14:50.542Z,0
2018-04-17T02:15:59.984Z,0
2018-04-17T02:17:09.391Z,0
2018-04-17T02:18:18.595Z,0
2018-04-17T02:19:27.761Z,0
2018-04-17T02:20:37.245Z,0
2018-04-17T02:21:46.658Z,0
2018-04-17T02:22:56.075Z,0
2018-04-17T02:24:05.015Z,0
2018-04-17T02:25:14.178Z,0
2018-04-17T02:26:23.859Z,0
2018-04-17T02:27:33.298Z,0
2018-04-17T02:28:43.243Z,0
2018-04-17T02:29:52.646Z,0
2018-04-17T02:31:01.559Z,0
2018-04-17T02:32:10.989Z,0
2018-04-17T02:33:20.680Z,0
2018-04-17T02:34:29.865Z,0
2018-04-17T02:35:39.556Z,0
2018-04-17T02:36:48.726Z,0
2018-04-17T02:37:58.188Z,0
2018-04-17T02:39:07.603Z,0
2018-04-17T02:40:17.277Z,0
2018-04-17T02:41:26.716Z,0
2018-04-17T02:42:36.392Z,0
2018-04-17T02:43:46.078Z,0
2018-04-17T02:44:55.512Z,0
2018-04-17T02:46:04.406Z,0
2018-04-17T02:47:14.088Z,0
2018-04-17T02:48:23.756Z,0
2018-04-17T02:49:33.436Z,0
2018-04-17T02:50:43.125Z,0
2018-04-17T02:51:53.071Z,0
2018-04-17T02:53:03.063Z,0
2018-04-17T02:54:12.540Z,0
2018-04-17T02:55:21.718Z,0
2018-04-17T02:56:31.249Z,0
2018-04-17T02:57:41.220Z,0
2018-04-17T02:58:50.914Z,0
2018-04-17T03:00:00.357Z,0
2018-04-17T03:01:09.770Z,0
2018-04-17T03:02:19.184Z,0
2018-04-17T03:03:29.142Z,0
2018-04-17T03:04:39.078Z,0
2018-04-17T03:05:48.752Z,0
2018-04-17T03:06:58.413Z,0
2018-04-17T03:08:07.865Z,0
2018-04-17T03:09:17.033Z,0
2018-04-17T03:10:26.185Z,0
2018-04-17T03:11:35.604Z,0
2018-04-17T03:12:44.543Z,0
2018-04-17T03:13:54.218Z,0
2018-04-17T03:15:03.894Z,0
2018-04-17T03:16:12.798Z,0
2018-04-17T03:17:22.219Z,0
2018-04-17T03:18:31.109Z,0
2018-04-17T03:19:40.262Z,0
2018-04-17T03:20:49.941Z,0
2018-04-17T03:21:59.862Z,0
2018-04-17T03:23:09.289Z,0
2018-04-17T03:24:18.961Z,0
2018-04-17T03:25:28.634Z,0
2018-04-17T03:26:38.049Z,0
2018-04-17T03:27:47.488Z,0
2018-04-17T03:28:56.653Z,0
2018-04-17T03:30:06.320Z,0
2018-04-17T03:31:15.491Z,0
2018-04-17T03:32:24.652Z,0
2018-04-17T03:33:34.070Z,0
2018-04-17T03:34:43.488Z,0
2018-04-17T03:35:52.644Z,0
2018-04-17T03:37:01.544Z,0
2018-04-17T03:38:11.233Z,0
2018-04-17T03:39:20.971Z,0
2018-04-17T03:40:30.678Z,0
2018-04-17T03:41:39.846Z,0
2018-04-17T03:42:49.256Z,0
2018-04-17T03:43:58.933Z,0
2018-04-17T03:45:07.569Z,0
2018-04-17T03:46:16.993Z,0
2018-04-17T03:47:25.911Z,0
2018-04-17T03:48:35.339Z,0
2018-04-17T03:49:45.043Z,0
2018-04-17T03:50:54.471Z,0
2018-04-17T03:52:03.635Z,0
2018-04-17T03:53:12.819Z,0
2018-04-17T03:54:22.232Z,0
2018-04-17T03:55:31.399Z,0
2018-04-17T03:56:41.066Z,0
2018-04-17T03:57:50.206Z,0
2018-04-17T03:58:59.626Z,0
2018-04-17T04:00:08.785Z,0
2018-04-17T04:01:18.467Z,0
2018-04-17T04:02:27.918Z,0
2018-04-17T04:03:37.340Z,0
2018-04-17T04:04:46.771Z,0
2018-04-17T04:05:56.707Z,0
2018-04-17T04:07:05.617Z,0
2018-04-17T04:08:15.039Z,0
2018-04-17T04:09:24.704Z,0
2018-04-17T04:10:33.922Z,0
2018-04-17T04:11:43.346Z,0
2018-04-17T04:12:52.758Z,0
2018-04-17T04:14:02.179Z,0
2018-04-17T04:15:12.355Z,0
2018-04-17T04:16:22.077Z,0
2018-04-17T04:17:31.498Z,0
2018-04-17T04:18:41.169Z,0
2018-04-17T04:19:50.580Z,0
2018-04-17T04:20:59.476Z,0
2018-04-17T04:22:08.374Z,0
2018-04-17T04:23:17.276Z,0
2018-04-17T04:24:26.443Z,0
2018-04-17T04:25:36.802Z,0
2018-04-17T04:26:45.970Z,0
2018-04-17T04:27:55.650Z,0
2018-04-17T04:29:05.084Z,0
2018-04-17T04:30:14.488Z,0
2018-04-17T04:31:23.629Z,0
2018-04-17T04:32:33.336Z,0
2018-04-17T04:33:41.972Z,0
2018-04-17T04:34:51.780Z,0
2018-04-17T04:36:01.528Z,0
2018-04-17T04:37:11.193Z,0
2018-04-17T04:38:21.122Z,0
2018-04-17T04:39:30.553Z,0
2018-04-17T04:40:39.972Z,0
2018-04-17T04:41:49.912Z,0
2018-04-17T04:42:59.592Z,0
2018-04-17T04:44:08.751Z,0
2018-04-17T04:45:18.418Z,0
2018-04-17T04:46:27.829Z,0
2018-04-17T04:47:37.818Z,0
2018-04-17T04:48:47.262Z,0
2018-04-17T04:49:56.413Z,0
2018-04-17T04:51:05.824Z,0
2018-04-17T04:52:16.009Z,0
2018-04-17T04:53:25.163Z,4
2018-04-17T04:54:34.318Z,4
2018-04-17T04:55:43.474Z,4
2018-04-17T04:56:52.905Z,4
2018-04-17T04:58:02.360Z,4
2018-04-17T04:59:12.053Z,4
2018-04-17T05:00:21.451Z,0
2018-04-17T05:01:30.864Z,0
2018-04-17T05:02:40.027Z,0
2018-04-17T05:03:49.199Z,0
2018-04-17T05:04:58.737Z,0
2018-04-17T05:06:08.430Z,4
2018-04-17T05:07:17.860Z,4
2018-04-17T05:08:26.762Z,4
2018-04-17T05:09:35.929Z,4
2018-04-17T05:10:45.352Z,4
2018-04-17T05:11:54.811Z,4
2018-04-17T05:13:04.372Z,4
2018-04-17T05:14:14.070Z,4
2018-04-17T05:15:23.002Z,4
2018-04-17T05:16:32.695Z,4
2018-04-17T05:17:42.361Z,4
2018-04-17T05:18:52.031Z,4
2018-04-17T05:20:01.445Z,4
2018-04-17T05:21:10.349Z,4
2018-04-17T05:22:20.355Z,4
2018-04-17T05:23:29.527Z,4
2018-04-17T05:24:38.695Z,4
2018-04-17T05:25:48.636Z,4
2018-04-17T05:26:58.056Z,8
2018-04-17T05:28:07.206Z,8
2018-04-17T05:29:16.873Z,8
2018-04-17T05:30:25.782Z,8
2018-04-17T05:31:35.235Z,4
2018-04-17T05:32:44.639Z,4
2018-04-17T05:33:54.069Z,4
2018-04-17T05:35:03.238Z,8
2018-04-17T05:36:12.458Z,8
2018-04-17T05:37:21.886Z,12
2018-04-17T05:38:31.059Z,12
2018-04-17T05:39:40.747Z,16
2018-04-17T05:40:50.426Z,16
2018-04-17T05:42:00.113Z,16
2018-04-17T05:43:09.797Z,16
2018-04-17T05:44:19.229Z,16
2018-04-17T05:45:28.657Z,16
2018-04-17T05:46:38.082Z,16
2018-04-17T05:47:47.236Z,16
2018-04-17T05:48:56.937Z,20
2018-04-17T05:50:06.635Z,16
2018-04-17T05:51:15.794Z,16
2018-04-17T05:52:24.688Z,16
2018-04-17T05:53:34.365Z,12
2018-04-17T05:54:43.832Z,12
2018-04-17T05:55:53.764Z,12
2018-04-17T05:57:02.745Z,8
2018-04-17T05:58:12.173Z,8
2018-04-17T05:59:21.606Z,8
2018-04-17T06:00:31.032Z,8
2018-04-17T06:01:40.205Z,12
2018-04-17T06:02:49.353Z,12
2018-04-17T06:03:58.768Z,12
2018-04-17T06:05:07.996Z,12
2018-04-17T06:06:17.703Z,12
2018-04-17T06:07:27.149Z,12
2018-04-17T06:08:36.821Z,8
2018-04-17T06:09:45.973Z,12
2018-04-17T06:10:55.165Z,12
2018-04-17T06:12:04.361Z,12
2018-04-17T06:13:13.501Z,12
2018-04-17T06:14:23.208Z,12
2018-04-17T06:15:32.948Z,12
2018-04-17T06:16:42.632Z,16
2018-04-17T06:17:52.323Z,12
2018-04-17T06:19:02.270Z,12
2018-04-17T06:20:11.958Z,16
2018-04-17T06:21:21.376Z,16
2018-04-17T06:22:31.048Z,16
2018-04-17T06:23:40.754Z,16
2018-04-17T06:24:49.918Z,16
2018-04-17T06:25:59.876Z,16
2018-04-17T06:27:09.569Z,16
2018-04-17T06:28:19.275Z,16
2018-04-17T06:29:28.436Z,16
2018-04-17T06:30:38.119Z,16
2018-04-17T06:31:47.525Z,16
2018-04-17T06:32:56.677Z,16
2018-04-17T06:34:06.114Z,20
2018-04-17T06:35:15.277Z,16
2018-04-17T06:36:24.431Z,16
2018-04-17T06:37:33.851Z,20
2018-04-17T06:38:43.012Z,20
2018-04-17T06:39:52.670Z,20
2018-04-17T06:41:01.821Z,20
2018-04-17T06:42:11.333Z,20
2018-04-17T06:43:21.259Z,24
2018-04-17T06:44:30.671Z,20
2018-04-17T06:45:39.564Z,24
2018-04-17T06:46:48.985Z,24
2018-04-17T06:47:58.404Z,24
2018-04-17T06:49:07.831Z,24
2018-04-17T06:50:17.248Z,24
2018-04-17T06:51:26.670Z,24
2018-04-17T06:52:35.727Z,28
2018-04-17T06:53:44.930Z,28
2018-04-17T06:54:54.609Z,28
2018-04-17T06:56:04.294Z,28
2018-04-17T06:57:13.716Z,28
2018-04-17T06:58:23.403Z,28
2018-04-17T06:59:32.576Z,32
2018-04-17T07:00:42.004Z,32
2018-04-17T07:01:51.429Z,32
2018-04-17T07:03:00.880Z,32
2018-04-17T07:04:10.307Z,32
2018-04-17T07:05:19.889Z,32
2018-04-17T07:06:29.345Z,36
2018-04-17T07:07:39.018Z,36
2018-04-17T07:08:48.176Z,36
2018-04-17T07:09:57.093Z,36
2018-04-17T07:11:07.043Z,36
2018-04-17T07:12:16.458Z,36
2018-04-17T07:13:26.406Z,44
2018-04-17T07:14:35.557Z,40
2018-04-17T07:15:44.977Z,44
2018-04-17T07:16:54.702Z,48
2018-04-17T07:18:04.470Z,48
2018-04-17T07:19:14.183Z,48
2018-04-17T07:20:23.834Z,48
2018-04-17T07:21:33.771Z,48
2018-04-17T07:22:42.691Z,48
2018-04-17T07:23:52.814Z,52
2018-04-17T07:25:02.258Z,52
2018-04-17T07:26:11.949Z,52
2018-04-17T07:27:20.844Z,48
2018-04-17T07:28:30.531Z,52
2018-04-17T07:29:39.946Z,52
2018-04-17T07:30:48.597Z,52
2018-04-17T07:31:58.299Z,56
2018-04-17T07:33:07.722Z,56
2018-04-17T07:34:16.617Z,56
2018-04-17T07:35:26.031Z,52
2018-04-17T07:36:35.969Z,56
2018-04-17T07:38:00.060Z,56
2018-04-17T07:39:09.728Z,60
2018-04-17T07:40:19.214Z,60
2018-04-17T07:41:28.967Z,60
2018-04-17T07:42:38.418Z,60
2018-04-17T07:43:47.827Z,60
2018-04-17T07:44:57.245Z,60
2018-04-17T07:46:06.400Z,56
2018-04-17T07:47:15.553Z,60
2018-04-17T07:48:24.983Z,60
2018-04-17T07:49:34.921Z,64
2018-04-17T07:50:44.593Z,60
2018-04-17T07:51:54.267Z,64
2018-04-17T07:53:03.967Z,64
2018-04-17T07:54:13.374Z,64
2018-04-17T07:55:22.798Z,64
2018-04-17T07:56:32.477Z,64
2018-04-17T07:57:41.900Z,68
2018-04-17T07:58:50.795Z,64
2018-04-17T08:00:00.534Z,68
2018-04-17T08:01:09.450Z,64
2018-04-17T08:02:18.856Z,68
2018-04-17T08:03:28.296Z,68
2018-04-17T08:04:38.102Z,68
2018-04-17T08:05:47.531Z,68
2018-04-17T08:06:57.202Z,68
2018-04-17T08:08:06.637Z,72
2018-04-17T08:09:16.364Z,72
2018-04-17T08:10:26.309Z,72
2018-04-17T08:11:36.241Z,72
2018-04-17T08:12:46.190Z,68
2018-04-17T08:13:55.163Z,68
2018-04-17T08:15:04.575Z,72
2018-04-17T08:16:14.241Z,72
2018-04-17T08:17:23.666Z,72
2018-04-17T08:18:33.099Z,72
2018-04-17T08:19:42.525Z,72
2018-04-17T08:20:51.679Z,72
2018-04-17T08:22:01.095Z,72
2018-04-17T08:23:10.536Z,72
2018-04-17T08:24:19.965Z,68
2018-04-17T08:25:29.409Z,68
2018-04-17T08:26:38.839Z,72
2018-04-17T08:27:48.792Z,72
2018-04-17T08:28:58.492Z,72
2018-04-17T08:30:07.903Z,72
2018-04-17T08:31:17.323Z,72
2018-04-17T08:32:27.263Z,72
2018-04-17T08:33:36.675Z,72
2018-04-17T08:34:46.343Z,76
2018-04-17T08:35:55.758Z,72
2018-04-17T08:37:05.274Z,76
2018-04-17T08:38:13.910Z,76
2018-04-17T08:39:23.334Z,76
2018-04-17T08:40:32.790Z,76
2018-04-17T08:41:42.216Z,76
2018-04-17T08:42:52.367Z,80
2018-04-17T08:44:02.296Z,76
2018-04-17T08:45:11.456Z,80
2018-04-17T08:46:20.903Z,80
2018-04-17T08:47:30.364Z,76
2018-04-17T08:48:39.542Z,80
2018-04-17T08:49:48.969Z,76
2018-04-17T08:50:58.406Z,80
2018-04-17T08:52:07.837Z,80
2018-04-17T08:53:17.263Z,80
2018-04-17T08:54:26.183Z,80
2018-04-17T08:55:35.401Z,76
2018-04-17T08:56:44.863Z,76
2018-04-17T08:57:54.554Z,80
2018-04-17T08:59:03.729Z,80
2018-04-17T09:00:13.176Z,84
2018-04-17T09:01:22.347Z,80
2018-04-17T09:02:31.764Z,84
2018-04-17T09:03:41.015Z,84
2018-04-17T09:04:50.194Z,84
2018-04-17T09:05:59.688Z,84
2018-04-17T09:07:09.091Z,84
2018-04-17T09:08:18.521Z,80
2018-04-17T09:09:27.964Z,84
2018-04-17T09:10:36.633Z,80
2018-04-17T09:11:46.110Z,84
2018-04-17T09:12:56.132Z,84
2018-04-17T09:14:05.795Z,80
2018-04-17T09:15:14.984Z,84
2018-04-17T09:16:24.127Z,84
2018-04-17T09:17:33.552Z,84
2018-04-17T09:18:42.966Z,80
2018-04-17T09:19:52.399Z,84
2018-04-17T09:21:01.822Z,84
2018-04-17T09:22:10.995Z,84
2018-04-17T09:23:20.164Z,80
2018-04-17T09:24:29.327Z,76
2018-04-17T09:25:38.482Z,76
2018-04-17T09:26:47.964Z,80
2018-04-17T09:27:57.909Z,80
2018-04-17T09:29:07.337Z,76
2018-04-17T09:30:17.011Z,76
2018-04-17T09:31:26.200Z,76
2018-04-17T09:32:35.131Z,72
2018-04-17T09:33:44.555Z,72
2018-04-17T09:34:53.717Z,64
2018-04-17T09:36:03.590Z,52
2018-04-17T09:37:13.527Z,60
2018-04-17T09:38:22.435Z,64
2018-04-17T09:39:32.181Z,68
2018-04-17T09:40:41.605Z,72
2018-04-17T09:41:51.294Z,76
2018-04-17T09:43:00.974Z,72
2018-04-17T09:44:09.614Z,72
2018-04-17T09:45:19.045Z,72
2018-04-17T09:46:28.710Z,76
2018-04-17T09:47:37.616Z,72
2018-04-17T09:48:47.281Z,72
2018-04-17T09:49:57.231Z,72
2018-04-17T09:51:06.586Z,68
2018-04-17T09:52:16.004Z,60
2018-04-17T09:53:25.426Z,60
2018-04-17T09:54:35.092Z,68
2018-04-17T09:55:44.252Z,68
2018-04-17T09:56:53.933Z,68
2018-04-17T09:58:03.460Z,68
2018-04-17T09:59:12.906Z,64
2018-04-17T10:00:22.085Z,64
2018-04-17T10:01:31.769Z,68
2018-04-17T10:02:41.438Z,68
2018-04-17T10:03:50.869Z,68
2018-04-17T10:05:00.026Z,68
2018-04-17T10:06:09.234Z,64
2018-04-17T10:07:18.643Z,60
2018-04-17T10:08:28.293Z,60
2018-04-17T10:09:37.717Z,60
2018-04-17T10:10:47.675Z,60
2018-04-17T10:11:56.855Z,60
2018-04-17T10:13:06.647Z,60
2018-04-17T10:14:16.094Z,60
2018-04-17T10:15:25.517Z,64
2018-04-17T10:16:34.431Z,64
2018-04-17T10:17:44.095Z,64
2018-04-17T10:18:53.588Z,64
2018-04-17T10:20:03.015Z,60
2018-04-17T10:21:12.444Z,64
2018-04-17T10:22:22.381Z,60
2018-04-17T10:23:31.325Z,60
2018-04-17T10:24:40.979Z,64
2018-04-17T10:25:50.402Z,60
2018-04-17T10:27:00.117Z,56
2018-04-17T10:28:09.793Z,52
2018-04-17T10:29:19.458Z,60
2018-04-17T10:30:28.785Z,56
2018-04-17T10:31:38.197Z,56
2018-04-17T10:32:47.632Z,60
2018-04-17T10:33:57.034Z,60
2018-04-17T10:35:06.196Z,60
2018-04-17T10:36:15.872Z,56
2018-04-17T10:37:25.295Z,60
2018-04-17T10:38:34.456Z,56
2018-04-17T10:39:44.276Z,56
2018-04-17T10:40:53.694Z,56
2018-04-17T10:42:03.164Z,56
2018-04-17T10:43:12.350Z,56
2018-04-17T10:44:21.549Z,56
2018-04-17T10:45:30.725Z,56
2018-04-17T10:46:39.977Z,52
2018-04-17T10:47:49.656Z,56
2018-04-17T10:48:58.315Z,52
2018-04-17T10:50:08.006Z,52
2018-04-17T10:51:17.420Z,52
2018-04-17T10:52:26.825Z,48
2018-04-17T10:53:35.985Z,48
2018-04-17T10:54:45.135Z,48
2018-04-17T10:55:54.566Z,52
2018-04-17T10:57:03.717Z,48
2018-04-17T10:58:12.884Z,52
2018-04-17T10:59:22.315Z,52
2018-04-17T11:00:31.219Z,48
2018-04-17T11:01:40.383Z,48
2018-04-17T11:02:50.336Z,48
2018-04-17T11:03:59.794Z,44
2018-04-17T11:05:08.949Z,48
2018-04-17T11:06:18.656Z,44
2018-04-17T11:07:27.841Z,48
2018-04-17T11:08:37.523Z,44
2018-04-17T11:09:46.701Z,48
2018-04-17T11:10:56.402Z,44
2018-04-17T11:12:05.823Z,24
2018-04-17T11:13:14.982Z,44
2018-04-17T11:14:24.419Z,44
2018-04-17T11:15:34.130Z,44
2018-04-17T11:16:43.037Z,44
2018-04-17T11:17:52.492Z,40
2018-04-17T11:19:01.901Z,44
2018-04-17T11:20:10.792Z,44
2018-04-17T11:21:19.442Z,44
2018-04-17T11:22:28.880Z,44
2018-04-17T11:23:38.041Z,44
2018-04-17T11:24:47.192Z,40
2018-04-17T11:25:56.093Z,40
2018-04-17T11:27:05.772Z,40
2018-04-17T11:28:15.184Z,36
2018-04-17T11:29:24.595Z,40
2018-04-17T11:30:33.529Z,36
2018-04-17T11:31:42.427Z,40
2018-04-17T11:32:52.102Z,40
2018-04-17T11:34:01.519Z,40
2018-04-17T11:35:10.484Z,36
2018-04-17T11:36:19.382Z,36
2018-04-17T11:37:28.281Z,36
2018-04-17T11:38:37.726Z,36
2018-04-17T11:39:46.883Z,36
2018-04-17T11:40:56.307Z,40
2018-04-17T11:42:05.732Z,36
2018-04-17T11:43:15.742Z,36
2018-04-17T11:44:24.906Z,36
2018-04-17T11:45:34.354Z,36
2018-04-17T11:46:43.801Z,40
2018-04-17T11:47:52.980Z,40
2018-04-17T11:49:02.407Z,40
2018-04-17T11:50:11.566Z,44
2018-04-17T11:51:20.728Z,40
2018-04-17T11:52:29.893Z,44
2018-04-17T11:53:38.790Z,40
2018-04-17T11:54:47.951Z,44
2018-04-17T11:55:57.631Z,44
2018-04-17T11:57:06.789Z,44
2018-04-17T11:58:16.008Z,40
2018-04-17T11:59:25.427Z,40
2018-04-17T12:00:34.582Z,44
2018-04-17T12:01:44.010Z,48
2018-04-17T12:02:53.688Z,44
2018-04-17T12:04:03.127Z,44
2018-04-17T12:05:13.187Z,44
2018-04-17T12:06:22.716Z,44
2018-04-17T12:07:31.898Z,44
2018-04-17T12:08:41.571Z,48
2018-04-17T12:09:51.041Z,44
2018-04-17T12:11:00.458Z,44
2018-04-17T12:12:09.878Z,48
2018-04-17T12:13:19.121Z,44
2018-04-17T12:14:28.292Z,48
2018-04-17T12:15:37.974Z,40
2018-04-17T12:16:47.391Z,40
2018-04-17T12:17:56.569Z,48
2018-04-17T12:19:05.749Z,44
2018-04-17T12:20:15.162Z,40
2018-04-17T12:21:24.865Z,44
2018-04-17T12:22:34.307Z,48
2018-04-17T12:23:43.464Z,48
2018-04-17T12:24:52.867Z,48
2018-04-17T12:26:02.884Z,48
2018-04-17T12:27:12.033Z,48
2018-04-17T12:28:21.719Z,44
2018-04-17T12:29:30.880Z,52
2018-04-17T12:30:40.312Z,52
2018-04-17T12:31:50.002Z,52
2018-04-17T12:32:59.419Z,48
2018-04-17T12:34:08.838Z,44
2018-04-17T12:35:17.745Z,48
2018-04-17T12:36:27.435Z,48
2018-04-17T12:37:36.633Z,44
2018-04-17T12:38:46.672Z,44
2018-04-17T12:39:56.102Z,52
2018-04-17T12:41:05.269Z,52
2018-04-17T12:42:14.953Z,60
2018-04-17T12:43:24.620Z,56
2018-04-17T12:44:34.300Z,48
2018-04-17T12:45:44.036Z,44
2018-04-17T12:46:53.990Z,48
2018-04-17T12:48:03.156Z,52
2018-04-17T12:49:12.832Z,52
2018-04-17T12:50:22.515Z,56
2018-04-17T12:51:32.457Z,64
2018-04-17T12:52:41.632Z,64
2018-04-17T12:53:51.332Z,68
2018-04-17T12:55:00.506Z,60
2018-04-17T12:56:09.685Z,60
2018-04-17T12:57:18.336Z,60
2018-04-17T12:58:27.499Z,64
2018-04-17T12:59:36.393Z,64
2018-04-17T13:00:45.797Z,56
2018-04-17T13:01:55.715Z,60
2018-04-17T13:03:04.903Z,64
2018-04-17T13:04:14.060Z,60
2018-04-17T13:05:23.753Z,68
2018-04-17T13:06:33.192Z,68
2018-04-17T13:07:42.491Z,64
2018-04-17T13:08:51.904Z,64
2018-04-17T13:10:01.834Z,60
2018-04-17T13:11:10.993Z,64
2018-04-17T13:12:19.906Z,64
2018-04-17T13:13:29.344Z,68
2018-04-17T13:14:38.759Z,68
2018-04-17T13:15:48.823Z,72
2018-04-17T13:16:58.546Z,68
2018-04-17T13:18:07.458Z,76
2018-04-17T13:19:16.633Z,72
2018-04-17T13:20:26.061Z,76
2018-04-17T13:21:35.500Z,76
2018-04-17T13:22:44.921Z,72
2018-04-17T13:23:53.815Z,68
2018-04-17T13:25:02.987Z,68
2018-04-17T13:26:12.674Z,72
2018-04-17T13:27:22.138Z,76
2018-04-17T13:28:31.057Z,76
2018-04-17T13:29:40.200Z,76
2018-04-17T13:30:49.879Z,84
2018-04-17T13:31:59.298Z,80
2018-04-17T13:33:08.462Z,80
2018-04-17T13:34:18.155Z,84
2018-04-17T13:35:27.318Z,84
2018-04-17T13:36:36.471Z,84
2018-04-17T13:37:45.889Z,80
2018-04-17T13:38:55.574Z,72
2018-04-17T13:40:04.469Z,76
2018-04-17T13:41:13.891Z,80
2018-04-17T13:42:23.150Z,84
2018-04-17T13:43:32.323Z,88
2018-04-17T13:44:41.477Z,88
2018-04-17T13:45:51.176Z,80
2018-04-17T13:47:00.867Z,88
2018-04-17T13:48:10.805Z,84
2018-04-17T13:49:20.576Z,84
2018-04-17T13:50:30.255Z,88
2018-04-17T13:51:39.418Z,88
2018-04-17T13:52:49.077Z,84
2018-04-17T13:53:58.771Z,88
2018-04-17T13:55:08.444Z,84
2018-04-17T13:56:17.928Z,84
2018-04-17T13:57:27.341Z,88
2018-04-17T13:58:37.277Z,88
2018-04-17T13:59:46.760Z,72
2018-04-17T14:00:55.664Z,64
2018-04-17T14:02:04.562Z,68
2018-04-17T14:03:13.477Z,80
2018-04-17T14:04:22.899Z,76
2018-04-17T14:05:32.324Z,72
2018-04-17T14:06:41.738Z,72
2018-04-17T14:07:51.430Z,76
2018-04-17T14:09:00.597Z,84
2018-04-17T14:10:10.535Z,84
2018-04-17T14:11:20.223Z,92
2018-04-17T14:12:29.401Z,84
2018-04-17T14:13:38.806Z,88
2018-04-17T14:14:48.734Z,72
2018-04-17T14:15:57.898Z,92
2018-04-17T14:17:07.112Z,88
2018-04-17T14:18:16.780Z,84
2018-04-17T14:19:25.941Z,72
2018-04-17T14:20:35.108Z,72
2018-04-17T14:21:44.036Z,72
2018-04-17T14:22:53.458Z,84
2018-04-17T14:24:02.885Z,88
2018-04-17T14:25:12.558Z,80
2018-04-17T14:26:22.260Z,84
2018-04-17T14:27:31.424Z,84
2018-04-17T14:28:41.087Z,80
2018-04-17T14:29:51.032Z,96
2018-04-17T14:30:59.947Z,100
2018-04-17T14:32:09.349Z,100
2018-04-17T14:33:18.770Z,84
2018-04-17T14:34:28.514Z,88
2018-04-17T14:35:38.174Z,36
2018-04-17T14:36:47.592Z,40
2018-04-17T14:37:56.752Z,40
2018-04-17T14:39:06.160Z,52
2018-04-17T14:40:15.836Z,56
2018-04-17T14:41:25.499Z,52
2018-04-17T14:42:35.472Z,40
2018-04-17T14:43:45.272Z,32
2018-04-17T14:44:54.694Z,28
2018-04-17T14:46:03.570Z,28
2018-04-17T14:47:12.992Z,24
2018-04-17T14:48:21.893Z,20
2018-04-17T14:49:31.292Z,12
2018-04-17T14:50:40.191Z,12
2018-04-17T14:51:49.336Z,12
2018-04-17T14:52:58.748Z,12
2018-04-17T14:54:07.903Z,8
2018-04-17T14:55:17.314Z,8
2018-04-17T14:56:26.493Z,12
2018-04-17T14:57:35.906Z,8
2018-04-17T14:58:45.062Z,8
2018-04-17T14:59:54.471Z,8
2018-04-17T15:01:03.876Z,8
2018-04-17T15:02:13.285Z,8
2018-04-17T15:03:22.256Z,12
2018-04-17T15:04:31.489Z,8
2018-04-17T15:05:40.844Z,12
2018-04-17T15:06:50.704Z,12
2018-04-17T15:07:59.889Z,12
2018-04-17T15:09:09.584Z,12
2018-04-17T15:10:18.754Z,8
2018-04-17T15:11:28.179Z,8
2018-04-17T15:12:38.049Z,8
2018-04-17T15:13:47.468Z,8
2018-04-17T15:14:57.164Z,8
2018-04-17T15:16:06.168Z,8
2018-04-17T15:17:15.102Z,8
2018-04-17T15:18:25.475Z,8
2018-04-17T15:19:34.664Z,8
2018-04-17T15:20:45.033Z,8
2018-04-17T15:21:54.686Z,12
2018-04-17T15:23:03.872Z,12
2018-04-17T15:24:13.795Z,8
2018-04-17T15:25:23.207Z,8
2018-04-17T15:26:33.015Z,8
2018-04-17T15:27:42.460Z,8
2018-04-17T15:28:51.413Z,8
2018-04-17T15:30:01.751Z,8
2018-04-17T15:31:11.225Z,8
2018-04-17T15:32:20.899Z,4
2018-04-17T15:33:30.064Z,4
2018-04-17T15:34:39.732Z,8
2018-04-17T15:35:49.668Z,4
2018-04-17T15:36:59.091Z,4
2018-04-17T15:38:07.753Z,4
2018-04-17T15:39:17.187Z,16
2018-04-17T15:40:26.893Z,12
2018-04-17T15:41:36.326Z,12
2018-04-17T15:42:45.739Z,12
2018-04-17T15:43:54.927Z,12
2018-04-17T15:45:04.417Z,12
2018-04-17T15:46:14.110Z,12
2018-04-17T15:47:23.513Z,12
2018-04-17T15:48:32.666Z,16
2018-04-17T15:49:42.349Z,12
2018-04-17T15:50:52.455Z,12
2018-04-17T15:52:01.611Z,12
2018-04-17T15:53:11.042Z,12
2018-04-17T15:54:20.467Z,12
2018-04-17T15:55:30.132Z,12
2018-04-17T15:56:39.547Z,12
2018-04-17T15:57:48.692Z,12
2018-04-17T15:58:57.857Z,12
2018-04-17T16:00:07.990Z,12
2018-04-17T16:01:17.184Z,12
2018-04-17T16:02:27.285Z,12
2018-04-17T16:03:36.827Z,12
2018-04-17T16:04:45.679Z,12
2018-04-17T16:05:55.277Z,12
2018-04-17T16:07:04.691Z,12
2018-04-17T16:08:15.041Z,12
2018-04-17T16:09:24.220Z,12
2018-04-17T16:10:33.964Z,12
2018-04-17T16:11:43.728Z,12
2018-04-17T16:12:53.456Z,12
2018-04-17T16:14:02.358Z,12
2018-04-17T16:15:11.541Z,8
2018-04-17T16:16:20.990Z,8
2018-04-17T16:17:29.655Z,8
2018-04-17T16:18:39.584Z,8
2018-04-17T16:19:48.498Z,12
2018-04-17T16:20:58.174Z,8
2018-04-17T16:22:07.584Z,12
2018-04-17T16:23:17.031Z,8
2018-04-17T16:24:26.718Z,8
2018-04-17T16:25:36.174Z,8
2018-04-17T16:26:45.578Z,8
2018-04-17T16:27:54.762Z,8
2018-04-17T16:29:03.940Z,8
2018-04-17T16:30:14.436Z,8
2018-04-17T16:31:24.135Z,8
2018-04-17T16:32:33.555Z,8
2018-04-17T16:33:43.511Z,8
2018-04-17T16:34:53.226Z,8
2018-04-17T16:36:01.861Z,8
2018-04-17T16:37:11.289Z,8
2018-04-17T16:38:21.262Z,8
2018-04-17T16:39:30.667Z,8
2018-04-17T16:40:40.084Z,8
2018-04-17T16:41:49.488Z,8
2018-04-17T16:42:58.906Z,8
2018-04-17T16:44:08.326Z,8
2018-04-17T16:45:17.488Z,8